ID Time Temp Humidity Light PM2.5 PM10 Voltage Extra Firmware Position Fcnt TTN version Gateways Distance RSSI LSNR Radiosettings
2026-05-07 17:26:11 21.25°C 61.125% 3.39V v255 No position 3987 ttn.v3 - -100 0.25 867.7MHz, SF9BW125, 4/5CR
- -113 -8.5 867.7MHz, SF9BW125, 4/5CR
- -120 -13.5 867.7MHz, SF9BW125, 4/5CR
2026-05-07 17:09:57 21.375°C 61.1875% 3.39V v255 No position 3986 ttn.v3 - -105 -1.25 868.1MHz, SF9BW125, 4/5CR
2026-05-07 16:53:44 21.1875°C 61.0625% 3.39V v255 No position 3985 ttn.v3 - -113 -8 867.5MHz, SF9BW125, 4/5CR
2026-05-07 16:37:30 21.125°C 61.4375% 3.39V v255 No position 3984 ttn.v3 - -112 -12 868.5MHz, SF9BW125, 4/5CR
2026-05-07 16:21:17 21°C 61.9375% 3.39V v255 No position 3983 ttn.v3 - -114 -5.25 867.3MHz, SF9BW125, 4/5CR
2026-05-07 16:05:04 21°C 62.4375% 3.39V v255 No position 3982 ttn.v3 - -114 -11.5 868.3MHz, SF9BW125, 4/5CR
2026-05-07 15:48:50 21°C 61.6875% 3.39V v255 No position 3981 ttn.v3 - -102 5.5 867.1MHz, SF9BW125, 4/5CR
- -115 -4.25 867.1MHz, SF9BW125, 4/5CR
2026-05-07 15:32:37 21.0625°C 62.375% 3.39V v255 No position 3980 ttn.v3 - -103 -3.25 868.1MHz, SF9BW125, 4/5CR
- -114 -7.25 868.1MHz, SF9BW125, 4/5CR
2026-05-07 15:16:24 21.0625°C 62.25% 3.39V v255 No position 3979 ttn.v3 - -104 6.75 867.9MHz, SF9BW125, 4/5CR
- -115 -7.5 867.9MHz, SF9BW125, 4/5CR
- -123 -9.5 867.9MHz, SF9BW125, 4/5CR
2026-05-07 15:00:10 21.0625°C 61.9375% 3.39V v255 No position 3978 ttn.v3 - -95 -9 868.5MHz, SF9BW125, 4/5CR
2026-05-07 14:43:57 21.0625°C 62% 3.39V v255 No position 3977 ttn.v3 - -101 2.25 867.7MHz, SF9BW125, 4/5CR
2026-05-07 14:11:30 21.1875°C 61.4375% 3.39V v255 No position 3975 ttn.v3 - -113 -7 867.5MHz, SF9BW125, 4/5CR
2026-05-07 13:55:17 21.25°C 61.375% 3.38V v255 No position 3974 ttn.v3 - -98 -2.5 868.1MHz, SF9BW125, 4/5CR
- -115 -11.25 868.1MHz, SF9BW125, 4/5CR
2026-05-07 13:39:03 21.0625°C 61.625% 3.39V v255 No position 3973 ttn.v3 - -103 3.25 867.3MHz, SF9BW125, 4/5CR
- -113 -7 867.3MHz, SF9BW125, 4/5CR
2026-05-07 13:06:37 20.75°C 61.625% 3.39V v255 No position 3971 ttn.v3 - -105 -1.5 867.1MHz, SF9BW125, 4/5CR
- -113 -6.75 867.1MHz, SF9BW125, 4/5CR
2026-05-07 12:50:24 20.75°C 61.625% 3.39V v255 No position 3970 ttn.v3 - -107 -10.75 868.3MHz, SF9BW125, 4/5CR
2026-05-07 12:34:10 20.8125°C 61.5625% 3.39V v255 No position 3969 ttn.v3 - -101 -0.75 867.9MHz, SF9BW125, 4/5CR
- -115 -11.75 867.9MHz, SF9BW125, 4/5CR
2026-05-07 12:17:57 20.6875°C 61.5% 3.39V v255 No position 3968 ttn.v3 - -97 -3.75 868.1MHz, SF9BW125, 4/5CR
2026-05-07 12:01:44 20.625°C 61.75% 3.39V v255 No position 3967 ttn.v3 - -103 -0.75 867.7MHz, SF9BW125, 4/5CR
- -113 -12.5 867.7MHz, SF9BW125, 4/5CR
2026-05-07 11:45:31 20.5625°C 62% 3.39V v255 No position 3966 ttn.v3 - -93 -10.5 868.5MHz, SF9BW125, 4/5CR
2026-05-07 10:56:51 20.375°C 63.125% 3.39V v255 No position 3963 ttn.v3 - -105 -0.75 867.3MHz, SF9BW125, 4/5CR
- -112 -7 867.3MHz, SF9BW125, 4/5CR
2026-05-07 10:40:38 20.3125°C 63.375% 3.38V v255 No position 3962 ttn.v3 - -103 -5.25 868.1MHz, SF9BW125, 4/5CR
- -103 -9.5 868.1MHz, SF9BW125, 4/5CR
2026-05-07 10:24:25 20.3125°C 63.3125% 3.39V v255 No position 3961 ttn.v3 - -104 -2.5 867.1MHz, SF9BW125, 4/5CR
- -115 -5 867.1MHz, SF9BW125, 4/5CR
2026-05-07 09:51:59 20.125°C 63.125% 3.39V v255 No position 3959 ttn.v3 - -97 -3.5 867.9MHz, SF9BW125, 4/5CR
- -114 -10.5 867.9MHz, SF9BW125, 4/5CR
2026-05-07 09:35:46 20.0625°C 63.6875% 3.39V v255 No position 3958 ttn.v3 - -113 -8.25 868.3MHz, SF9BW125, 4/5CR
2026-05-07 09:19:33 20°C 63.9375% 3.39V v255 No position 3957 ttn.v3 - -104 -0.5 867.7MHz, SF9BW125, 4/5CR
- -112 -12.25 867.7MHz, SF9BW125, 4/5CR
2026-05-07 09:03:20 19.9375°C 64.8125% 3.39V v255 No position 3956 ttn.v3 - -115 -4.75 868.1MHz, SF9BW125, 4/5CR
- -101 -5.25 868.1MHz, SF9BW125, 4/5CR
2026-05-07 08:47:07 19.875°C 64.5% 3.38V v255 No position 3955 ttn.v3 - -113 -5.75 867.5MHz, SF9BW125, 4/5CR
2026-05-07 08:14:41 19.8125°C 65.5% 3.39V v255 No position 3953 ttn.v3 - -105 0.5 867.3MHz, SF9BW125, 4/5CR
- -114 -7.5 867.3MHz, SF9BW125, 4/5CR
2026-05-07 07:58:28 19.75°C 66.1875% 3.39V v255 No position 3952 ttn.v3 - -114 -6.75 868.3MHz, SF9BW125, 4/5CR
2026-05-07 07:42:15 19.75°C 66.0625% 3.39V v255 No position 3951 ttn.v3 - -103 0.5 867.1MHz, SF9BW125, 4/5CR
- -112 -6.75 867.1MHz, SF9BW125, 4/5CR
2026-05-07 07:26:02 19.75°C 66.5% 3.38V v255 No position 3950 ttn.v3 - -105 -2.5 868.1MHz, SF9BW125, 4/5CR
- -113 -12.75 868.1MHz, SF9BW125, 4/5CR
2026-05-07 07:09:49 19.5625°C 64.875% 3.39V v255 No position 3949 ttn.v3 - -103 2.25 867.9MHz, SF9BW125, 4/5CR
- -113 -11.5 867.9MHz, SF9BW125, 4/5CR
2026-05-07 06:37:23 19.375°C 63.5625% 3.38V v255 No position 3947 ttn.v3 - -103 0 867.7MHz, SF9BW125, 4/5CR
- -113 -10.75 867.7MHz, SF9BW125, 4/5CR
2026-05-07 06:04:57 19.25°C 63.125% 3.39V v255 No position 3945 ttn.v3 - -112 -11.5 867.5MHz, SF9BW125, 4/5CR
2026-05-07 05:48:44 19.25°C 63.1875% 3.39V v255 No position 3944 ttn.v3 - -99 -1.75 868.1MHz, SF9BW125, 4/5CR
- -115 -10.75 868.1MHz, SF9BW125, 4/5CR
2026-05-07 05:32:32 19.25°C 63.1875% 3.39V v255 No position 3943 ttn.v3 - -103 0 867.3MHz, SF9BW125, 4/5CR
- -114 -9 867.3MHz, SF9BW125, 4/5CR
2026-05-07 05:16:19 19.25°C 63.25% 3.39V v255 No position 3942 ttn.v3 - -113 -8.25 868.5MHz, SF9BW125, 4/5CR
2026-05-07 05:00:06 19.3125°C 63.25% 3.39V v255 No position 3941 ttn.v3 - -105 0 867.1MHz, SF9BW125, 4/5CR
- -114 -7.25 867.1MHz, SF9BW125, 4/5CR
2026-05-07 04:27:40 19.375°C 63.4375% 3.39V v255 No position 3939 ttn.v3 - -105 5 867.9MHz, SF9BW125, 4/5CR
- -114 -11.5 867.9MHz, SF9BW125, 4/5CR
2026-05-07 04:11:27 19.4375°C 63.375% 3.39V v255 No position 3938 ttn.v3 - -99 0 868.1MHz, SF9BW125, 4/5CR
- -115 -11.75 868.1MHz, SF9BW125, 4/5CR
2026-05-07 03:55:14 19.5°C 63.375% 3.39V v255 No position 3937 ttn.v3 - -103 0.75 867.7MHz, SF9BW125, 4/5CR
- -113 -11.25 867.7MHz, SF9BW125, 4/5CR
- -124 -11.5 867.7MHz, SF9BW125, 4/5CR
2026-05-07 03:41:12 19.4375°C 63.5% 3.38V v255 No position 3936 ttn.v3 - -111 -7.25 868.5MHz, SF12BW125, 4/5CR
- -90 -12 868.5MHz, SF12BW125, 4/5CR
2026-05-07 03:22:59 19.4375°C 63.4375% 3.39V v255 No position 3935 ttn.v3 - -113 -12.75 867.5MHz, SF9BW125, 4/5CR
2026-05-07 02:50:33 19.5°C 63.5% 3.39V v255 No position 3933 ttn.v3 - -114 -10.75 867.3MHz, SF9BW125, 4/5CR
2026-05-07 02:34:20 19.5°C 63.625% 3.39V v255 No position 3932 ttn.v3 - -103 1 868.1MHz, SF9BW125, 4/5CR
- -115 -10.5 868.1MHz, SF9BW125, 4/5CR
2026-05-07 02:18:07 19.5625°C 63.6875% 3.38V v255 No position 3931 ttn.v3 - -111 -8.25 867.1MHz, SF9BW125, 4/5CR
2026-05-07 02:01:54 19.5625°C 63.75% 3.39V v255 No position 3930 ttn.v3 - -114 -10 868.5MHz, SF9BW125, 4/5CR
2026-05-07 01:45:41 19.5625°C 63.875% 3.39V v255 No position 3929 ttn.v3 - -103 3.75 867.9MHz, SF9BW125, 4/5CR
2026-05-07 01:13:15 19.5625°C 64.625% 3.39V v255 No position 3927 ttn.v3 - -99 1 867.7MHz, SF9BW125, 4/5CR
2026-05-07 00:57:02 19.5625°C 64.75% 3.39V v255 No position 3926 ttn.v3 - -104 -2.75 868.1MHz, SF9BW125, 4/5CR
- -113 -12.5 868.1MHz, SF9BW125, 4/5CR
2026-05-07 00:40:49 19.625°C 64.875% 3.39V v255 No position 3925 ttn.v3 - -114 -9.75 867.5MHz, SF9BW125, 4/5CR
2026-05-07 00:24:36 19.625°C 65.25% 3.39V v255 No position 3924 ttn.v3 - -114 -10.25 868.5MHz, SF9BW125, 4/5CR
2026-05-07 00:08:23 19.625°C 65.5625% 3.39V v255 No position 3923 ttn.v3 - -98 -4.25 867.3MHz, SF9BW125, 4/5CR
- -113 -11.75 867.3MHz, SF9BW125, 4/5CR
2026-05-06 23:35:57 19.6875°C 67.5% 3.38V v255 No position 3921 ttn.v3 - -102 1.75 867.1MHz, SF9BW125, 4/5CR
- -115 -11.5 867.1MHz, SF9BW125, 4/5CR
2026-05-06 23:19:44 19.75°C 68.9375% 3.38V v255 No position 3920 ttn.v3 - -105 -4.75 868.1MHz, SF9BW125, 4/5CR
- -115 -10.25 868.1MHz, SF9BW125, 4/5CR
2026-05-06 23:03:31 19.75°C 70.9375% 3.39V v255 No position 3919 ttn.v3 - -105 4.25 867.9MHz, SF9BW125, 4/5CR
2026-05-06 22:47:18 19.875°C 73.625% 3.39V v255 No position 3918 ttn.v3 - -114 -10 868.5MHz, SF9BW125, 4/5CR
- -95 -12 868.5MHz, SF9BW125, 4/5CR
2026-05-06 22:31:05 20.0625°C 78.4375% 3.39V v255 No position 3917 ttn.v3 - -104 2.25 867.7MHz, SF9BW125, 4/5CR
- -113 -10.25 867.7MHz, SF9BW125, 4/5CR
2026-05-06 21:58:39 19.875°C 76.1875% 3.39V v255 No position 3915 ttn.v3 - -112 -9 867.5MHz, SF9BW125, 4/5CR
2026-05-06 21:42:26 19.9375°C 77.125% 3.39V v255 No position 3914 ttn.v3 - -105 -4.25 868.1MHz, SF9BW125, 4/5CR
2026-05-06 21:26:13 19.8125°C 74.0625% 3.39V v255 No position 3913 ttn.v3 - -114 -11.5 867.3MHz, SF9BW125, 4/5CR
2026-05-06 21:10:00 19.5°C 66.1875% 3.39V v255 No position 3912 ttn.v3 - -114 -8 868.5MHz, SF9BW125, 4/5CR
2026-05-06 20:53:48 19.4375°C 66.125% 3.39V v255 No position 3911 ttn.v3 - -115 -7.5 867.1MHz, SF9BW125, 4/5CR
2026-05-06 20:21:22 19.375°C 67.9375% 3.39V v255 No position 3909 ttn.v3 - -103 -0.25 867.9MHz, SF9BW125, 4/5CR
- -115 -11.75 867.9MHz, SF9BW125, 4/5CR
2026-05-06 20:05:09 19.4375°C 68.125% 3.39V v255 No position 3908 ttn.v3 - -101 -5.25 868.1MHz, SF9BW125, 4/5CR
2026-05-06 19:48:56 19.125°C 62.375% 3.39V v255 No position 3907 ttn.v3 - -105 -4 867.7MHz, SF9BW125, 4/5CR
- -114 -9.75 867.7MHz, SF9BW125, 4/5CR
2026-05-06 19:32:44 19°C 61.6875% 3.39V v255 No position 3906 ttn.v3 - -118 -11.5 868.5MHz, SF9BW125, 4/5CR
- -92 -13.25 868.5MHz, SF9BW125, 4/5CR
2026-05-06 18:44:06 18.625°C 59.875% 3.39V v255 No position 3903 ttn.v3 - -101 0.25 867.3MHz, SF9BW125, 4/5CR
- -114 -12.25 867.3MHz, SF9BW125, 4/5CR
2026-05-06 18:11:41 17.75°C 52.9375% 3.39V v255 No position 3901 ttn.v3 - -115 -6.5 867.1MHz, SF9BW125, 4/5CR
2026-05-06 17:39:16 17.375°C 51.375% 3.39V v255 No position 3899 ttn.v3 - -105 0.75 867.9MHz, SF9BW125, 4/5CR
- -123 -10.75 867.9MHz, SF9BW125, 4/5CR
- -115 -11.75 867.9MHz, SF9BW125, 4/5CR
2026-05-06 17:06:51 17.5625°C 52.125% 3.39V v255 No position 3897 ttn.v3 - -102 2.25 867.7MHz, SF9BW125, 4/5CR
- -123 -8.75 867.7MHz, SF9BW125, 4/5CR
2026-05-06 16:34:26 18.4375°C 53.8125% 3.39V v255 No position 3895 ttn.v3 - -114 -12.5 867.5MHz, SF9BW125, 4/5CR
2026-05-06 16:02:01 19.125°C 62.6875% 3.39V v255 No position 3893 ttn.v3 - -114 -12.5 867.3MHz, SF9BW125, 4/5CR
2026-05-06 15:29:35 19.125°C 63.25% 3.39V v255 No position 3891 ttn.v3 - -125 -12.75 867.1MHz, SF9BW125, 4/5CR
2026-05-06 15:13:23 19.125°C 63.5% 3.39V v255 No position 3890 ttn.v3 - -103 -4.75 868.1MHz, SF9BW125, 4/5CR
2026-05-06 14:57:10 19.1875°C 63.5% 3.39V v255 No position 3889 ttn.v3 - -107 -0.25 867.9MHz, SF9BW125, 4/5CR
- -114 -8.5 867.9MHz, SF9BW125, 4/5CR
- -124 -12.5 867.9MHz, SF9BW125, 4/5CR
2026-05-06 14:24:44 19.125°C 64% 3.39V v255 No position 3887 ttn.v3 - -114 -13.5 867.7MHz, SF9BW125, 4/5CR
2026-05-06 13:52:19 19.0625°C 64.5% 3.39V v255 No position 3885 ttn.v3 - -114 -12 867.5MHz, SF9BW125, 4/5CR
2026-05-06 13:19:53 19°C 64.8125% 3.39V v255 No position 3883 ttn.v3 - -101 -7.25 867.3MHz, SF9BW125, 4/5CR
- -114 -8.5 867.3MHz, SF9BW125, 4/5CR
2026-05-06 13:03:40 19°C 65.0625% 3.39V v255 No position 3882 ttn.v3 - -114 -8.5 868.5MHz, SF9BW125, 4/5CR
- -96 -13.5 868.5MHz, SF9BW125, 4/5CR
2026-05-06 12:47:28 18.9375°C 65.4375% 3.39V v255 No position 3881 ttn.v3 - -106 -4 867.1MHz, SF9BW125, 4/5CR
- -113 -7.75 867.1MHz, SF9BW125, 4/5CR
2026-05-06 12:15:03 18.6875°C 66.625% 3.39V v255 No position 3879 ttn.v3 - -105 -0.5 867.9MHz, SF9BW125, 4/5CR
- -115 -9.25 867.9MHz, SF9BW125, 4/5CR
2026-05-06 11:26:25 18.5625°C 67.5% 3.39V v255 No position 3876 ttn.v3 - -114 -10.75 868.5MHz, SF9BW125, 4/5CR
2026-05-06 10:37:47 18.25°C 69.5% 3.38V v255 No position 3873 ttn.v3 - -114 -8 867.3MHz, SF9BW125, 4/5CR
2026-05-06 10:21:34 18.0625°C 70.25% 3.39V v255 No position 3872 ttn.v3 - -100 -10.75 868.1MHz, SF9BW125, 4/5CR
2026-05-06 10:05:22 17.9375°C 71.8125% 3.39V v255 No position 3871 ttn.v3 - -107 -2 867.1MHz, SF9BW125, 4/5CR
- -114 -12.75 867.1MHz, SF9BW125, 4/5CR
2026-05-06 09:49:10 17.875°C 72.125% 3.39V v255 No position 3870 ttn.v3 - -114 -10.5 868.5MHz, SF9BW125, 4/5CR
2026-05-06 09:32:57 17.75°C 71.125% 3.39V v255 No position 3869 ttn.v3 - -109 -3 867.9MHz, SF9BW125, 4/5CR
- -123 -11.25 867.9MHz, SF9BW125, 4/5CR
- -114 -12 867.9MHz, SF9BW125, 4/5CR
2026-05-06 09:16:45 17.6875°C 72.5% 3.39V v255 No position 3868 ttn.v3 - -109 -8 868.3MHz, SF9BW125, 4/5CR
2026-05-06 09:00:33 17.5°C 72.5625% 3.39V v255 No position 3867 ttn.v3 - -103 -4.5 867.7MHz, SF9BW125, 4/5CR
- -113 -13 867.7MHz, SF9BW125, 4/5CR
2026-05-06 08:44:20 17.4375°C 71.5% 3.39V v255 No position 3866 ttn.v3 - -105 -3.75 868.1MHz, SF9BW125, 4/5CR
- -115 -9.5 868.1MHz, SF9BW125, 4/5CR
2026-05-06 08:28:08 17.25°C 72% 3.39V v255 No position 3865 ttn.v3 - -114 -12 867.5MHz, SF9BW125, 4/5CR
2026-05-06 07:55:44 17.125°C 74.75% 3.39V v255 No position 3863 ttn.v3 - -114 -10 867.3MHz, SF9BW125, 4/5CR
2026-05-06 07:23:19 16.9375°C 77.375% 3.39V v255 No position 3861 ttn.v3 - -103 3.75 867.1MHz, SF9BW125, 4/5CR
- -113 -7.75 867.1MHz, SF9BW125, 4/5CR
2026-05-06 07:07:07 16.5°C 70.3125% 3.39V v255 No position 3860 ttn.v3 - -104 -2.75 868.1MHz, SF9BW125, 4/5CR
- -115 -7.25 868.1MHz, SF9BW125, 4/5CR
2026-05-06 06:50:55 16.1875°C 69.75% 3.39V v255 No position 3859 ttn.v3 - -101 0 867.9MHz, SF9BW125, 4/5CR
2026-05-06 06:34:43 15.9375°C 70.375% 3.39V v255 No position 3858 ttn.v3 - -113 -8.5 868.5MHz, SF9BW125, 4/5CR
2026-05-06 06:18:32 15.375°C 69% 3.39V v255 No position 3857 ttn.v3 - -103 4 867.7MHz, SF9BW125, 4/5CR
- -114 -12.5 867.7MHz, SF9BW125, 4/5CR
2026-05-06 05:13:45 15.25°C 68.625% 3.39V v255 No position 3853 ttn.v3 - -107 -2.75 867.3MHz, SF9BW125, 4/5CR
- -114 -9 867.3MHz, SF9BW125, 4/5CR
2026-05-06 04:41:21 15.0625°C 67.9375% 3.39V v255 No position 3851 ttn.v3 - -109 -5.5 867.1MHz, SF9BW125, 4/5CR
- -115 -10.75 867.1MHz, SF9BW125, 4/5CR
2026-05-06 04:25:10 15°C 67.625% 3.39V v255 No position 3850 ttn.v3 - -113 -8.25 868.3MHz, SF9BW125, 4/5CR
2026-05-06 04:08:58 14.9375°C 67.1875% 3.39V v255 No position 3849 ttn.v3 - -115 -11.5 867.9MHz, SF9BW125, 4/5CR
2026-05-06 03:36:35 15.25°C 65.625% 3.39V v255 No position 3847 ttn.v3 - -113 -12.75 867.7MHz, SF9BW125, 4/5CR
2026-05-06 03:20:23 15.5°C 65.4375% 3.39V v255 No position 3846 ttn.v3 - -115 -12 868.5MHz, SF9BW125, 4/5CR
2026-05-06 03:04:11 15.5625°C 65.625% 3.39V v255 No position 3845 ttn.v3 - -112 -12.5 867.5MHz, SF9BW125, 4/5CR
2026-05-06 02:31:48 15.75°C 66.0625% 3.39V v255 No position 3843 ttn.v3 - -114 -9.5 867.3MHz, SF9BW125, 4/5CR
2026-05-06 02:15:36 15.75°C 66.125% 3.39V v255 No position 3842 ttn.v3 - -109 -7.25 868.1MHz, SF9BW125, 4/5CR
2026-05-06 01:59:24 15.75°C 65.9375% 3.39V v255 No position 3841 ttn.v3 - -104 -3 867.1MHz, SF9BW125, 4/5CR
- -115 -9.5 867.1MHz, SF9BW125, 4/5CR
2026-05-06 01:45:23 15.8125°C 65.625% 3.38V v255 No position 3840 ttn.v3 - -113 -8.5 868.5MHz, SF12BW125, 4/5CR
- -94 -15.25 868.5MHz, SF12BW125, 4/5CR
2026-05-06 01:27:10 15.875°C 65.5% 3.39V v255 No position 3839 ttn.v3 - -105 -2 867.9MHz, SF9BW125, 4/5CR
- -128 -13.5 867.9MHz, SF9BW125, 4/5CR
2026-05-06 00:54:46 16.0625°C 65.0625% 3.39V v255 No position 3837 ttn.v3 - -104 -1.25 867.7MHz, SF9BW125, 4/5CR
- -114 -10.75 867.7MHz, SF9BW125, 4/5CR
2026-05-06 00:38:34 16.125°C 63.625% 3.39V v255 No position 3836 ttn.v3 - -107 -3.25 868.1MHz, SF9BW125, 4/5CR
2026-05-06 00:22:22 16.3125°C 63.0625% 3.39V v255 No position 3835 ttn.v3 - -112 -12.25 867.5MHz, SF9BW125, 4/5CR
2026-05-05 23:49:58 16.625°C 62.375% 3.39V v255 No position 3833 ttn.v3 - -103 -3 867.3MHz, SF9BW125, 4/5CR
2026-05-05 23:17:34 16.8125°C 61.75% 3.39V v255 No position 3831 ttn.v3 - -104 -3 867.1MHz, SF9BW125, 4/5CR
- -114 -7.5 867.1MHz, SF9BW125, 4/5CR
2026-05-05 23:01:22 17.0625°C 62.0625% 3.39V v255 No position 3830 ttn.v3 - -109 -6.5 868.1MHz, SF9BW125, 4/5CR
2026-05-05 22:28:57 17.5625°C 63.6875% 3.39V v255 No position 3828 ttn.v3 - -115 -11 868.5MHz, SF9BW125, 4/5CR
2026-05-05 22:12:45 17.75°C 64.25% 3.39V v255 No position 3827 ttn.v3 - -104 2.25 867.7MHz, SF9BW125, 4/5CR
- -114 -9.5 867.7MHz, SF9BW125, 4/5CR
2026-05-05 21:40:20 18.4375°C 69.5% 3.39V v255 No position 3825 ttn.v3 - -114 -9.25 867.5MHz, SF9BW125, 4/5CR
2026-05-05 21:24:07 18.5°C 63.4375% 3.39V v255 No position 3824 ttn.v3 - -99 -1 868.1MHz, SF9BW125, 4/5CR
2026-05-05 21:07:55 19.25°C 68.125% 3.39V v255 No position 3823 ttn.v3 - -104 -2.5 867.3MHz, SF9BW125, 4/5CR
- -113 -8.25 867.3MHz, SF9BW125, 4/5CR
2026-05-05 20:51:42 19.3125°C 69.5% 3.39V v255 No position 3822 ttn.v3 - -115 -11.5 868.5MHz, SF9BW125, 4/5CR
2026-05-05 20:35:29 19.3125°C 70.5% 3.39V v255 No position 3821 ttn.v3 - -105 1.75 867.1MHz, SF9BW125, 4/5CR
- -115 -8.25 867.1MHz, SF9BW125, 4/5CR
2026-05-05 20:03:03 19.3125°C 70.75% 3.39V v255 No position 3819 ttn.v3 - -102 5 867.9MHz, SF9BW125, 4/5CR
- -114 -12 867.9MHz, SF9BW125, 4/5CR
2026-05-05 19:30:38 19°C 69.875% 3.39V v255 No position 3817 ttn.v3 - -102 2 867.7MHz, SF9BW125, 4/5CR
- -115 -10.5 867.7MHz, SF9BW125, 4/5CR
2026-05-05 19:14:25 18.6875°C 67.3125% 3.39V v255 No position 3816 ttn.v3 - -114 -8.75 868.5MHz, SF9BW125, 4/5CR
2026-05-05 18:25:47 18.3125°C 66.3125% 3.39V v255 No position 3813 ttn.v3 - -101 -3.25 867.3MHz, SF9BW125, 4/5CR
- -114 -13.25 867.3MHz, SF9BW125, 4/5CR
2026-05-05 18:09:35 18.0625°C 65.625% 3.39V v255 No position 3812 ttn.v3 - -104 -6.25 868.1MHz, SF9BW125, 4/5CR
- -119 -10.5 868.1MHz, SF9BW125, 4/5CR
- -112 -11.5 868.1MHz, SF9BW125, 4/5CR
2026-05-05 17:53:22 17.75°C 64.125% 3.39V v255 No position 3811 ttn.v3 - -103 -3.5 867.1MHz, SF9BW125, 4/5CR
2026-05-05 17:37:10 17.4375°C 63.0625% 3.39V v255 No position 3810 ttn.v3 - -112 -7.25 868.5MHz, SF9BW125, 4/5CR
- -118 -14.25 868.5MHz, SF9BW125, 4/5CR
2026-05-05 17:20:58 17.125°C 63.1875% 3.39V v255 No position 3809 ttn.v3 - -109 -2.25 867.9MHz, SF9BW125, 4/5CR
2026-05-05 16:48:34 16.875°C 62.25% 3.39V v255 No position 3807 ttn.v3 - -105 3 867.7MHz, SF9BW125, 4/5CR
- -114 -13.75 867.7MHz, SF9BW125, 4/5CR
2026-05-05 15:59:57 16.8125°C 63.125% 3.39V v255 No position 3804 ttn.v3 - -112 -11.75 868.5MHz, SF9BW125, 4/5CR
2026-05-05 15:43:45 16.6875°C 63.875% 3.39V v255 No position 3803 ttn.v3 - -103 -6 867.3MHz, SF9BW125, 4/5CR
- -114 -10.75 867.3MHz, SF9BW125, 4/5CR
2026-05-05 15:11:21 16.3125°C 64.9375% 3.39V v255 No position 3801 ttn.v3 - -109 -0.5 867.1MHz, SF9BW125, 4/5CR
- -114 -11.75 867.1MHz, SF9BW125, 4/5CR
2026-05-05 14:55:09 16.25°C 66.6875% 3.39V v255 No position 3800 ttn.v3 - -103 -8.25 868.1MHz, SF9BW125, 4/5CR
2026-05-05 14:38:57 16.125°C 67.75% 3.39V v255 No position 3799 ttn.v3 - -107 1.25 867.9MHz, SF9BW125, 4/5CR
2026-05-05 14:22:45 15.8125°C 68.125% 3.39V v255 No position 3798 ttn.v3 - -91 -12.25 868.5MHz, SF9BW125, 4/5CR
- -111 -12.5 868.5MHz, SF9BW125, 4/5CR
2026-05-05 14:06:33 15.6875°C 69.5% 3.39V v255 No position 3797 ttn.v3 - -104 1.5 867.7MHz, SF9BW125, 4/5CR
- -115 -9.25 867.7MHz, SF9BW125, 4/5CR
- -125 -12 867.7MHz, SF9BW125, 4/5CR
2026-05-05 13:34:10 15.625°C 71.375% 3.39V v255 No position 3795 ttn.v3 - -113 -14 867.5MHz, SF9BW125, 4/5CR
2026-05-05 13:17:58 15.5625°C 71.75% 3.39V v255 No position 3794 ttn.v3 - -105 -1.25 868.1MHz, SF9BW125, 4/5CR
2026-05-05 13:01:46 15.4375°C 72.5625% 3.39V v255 No position 3793 ttn.v3 - -103 -1.75 867.3MHz, SF9BW125, 4/5CR
- -114 -12.75 867.3MHz, SF9BW125, 4/5CR
2026-05-05 12:45:34 15.5°C 72.375% 3.39V v255 No position 3792 ttn.v3 - -98 -12 868.5MHz, SF9BW125, 4/5CR
2026-05-05 12:29:22 15.375°C 72.875% 3.39V v255 No position 3791 ttn.v3 - -104 2.25 867.1MHz, SF9BW125, 4/5CR
- -115 -11.25 867.1MHz, SF9BW125, 4/5CR
2026-05-05 11:56:59 15.4375°C 72.125% 3.39V v255 No position 3789 ttn.v3 - -107 -1.75 867.9MHz, SF9BW125, 4/5CR
2026-05-05 11:24:35 15.3125°C 71.9375% 3.39V v255 No position 3787 ttn.v3 - -115 -13.5 867.7MHz, SF9BW125, 4/5CR
2026-05-05 11:08:24 15.25°C 71.5% 3.39V v255 No position 3786 ttn.v3 - -95 -13 868.5MHz, SF9BW125, 4/5CR
2026-05-05 10:19:48 15.3125°C 71.625% 3.39V v255 No position 3783 ttn.v3 - -103 -0.5 867.3MHz, SF9BW125, 4/5CR
- -114 -12.25 867.3MHz, SF9BW125, 4/5CR
2026-05-05 10:03:37 15.5°C 71.375% 3.39V v255 No position 3782 ttn.v3 - -102 -8.75 868.1MHz, SF9BW125, 4/5CR
2026-05-05 09:47:25 15.6875°C 71.8125% 3.39V v255 No position 3781 ttn.v3 - -105 3.5 867.1MHz, SF9BW125, 4/5CR
- -115 -10.25 867.1MHz, SF9BW125, 4/5CR
2026-05-05 09:31:13 15.4375°C 71.875% 3.39V v255 No position 3780 ttn.v3 - -114 -10 868.5MHz, SF9BW125, 4/5CR
- -90 -13.75 868.5MHz, SF9BW125, 4/5CR
2026-05-05 09:15:01 15.625°C 71.5% 3.39V v255 No position 3779 ttn.v3 - -104 0 867.9MHz, SF9BW125, 4/5CR
- -114 -11.75 867.9MHz, SF9BW125, 4/5CR
- -125 -12.25 867.9MHz, SF9BW125, 4/5CR
2026-05-05 08:42:37 15.8125°C 72.1875% 3.39V v255 No position 3777 ttn.v3 - -105 -4.5 867.7MHz, SF9BW125, 4/5CR
- -114 -13.25 867.7MHz, SF9BW125, 4/5CR
2026-05-05 08:26:26 15.875°C 72% 3.39V v255 No position 3776 ttn.v3 - -103 -4.25 868.1MHz, SF9BW125, 4/5CR
2026-05-05 08:10:14 16.0625°C 72.5625% 3.39V v255 No position 3775 ttn.v3 - -114 -9 867.5MHz, SF9BW125, 4/5CR
2026-05-05 07:54:02 16.0625°C 72.625% 3.39V v255 No position 3774 ttn.v3 - -93 -10.5 868.5MHz, SF9BW125, 4/5CR
2026-05-05 07:37:50 16.125°C 72.9375% 3.39V v255 No position 3773 ttn.v3 - -114 -9.5 867.3MHz, SF9BW125, 4/5CR
2026-05-05 07:21:38 16.25°C 75.4375% 3.39V v255 No position 3772 ttn.v3 - -114 -7.5 868.3MHz, SF9BW125, 4/5CR
2026-05-05 07:05:26 16.4375°C 79% 3.39V v255 No position 3771 ttn.v3 - -115 -10.75 867.1MHz, SF9BW125, 4/5CR
2026-05-05 06:49:14 16.3125°C 71.4375% 3.39V v255 No position 3770 ttn.v3 - -107 -5 868.1MHz, SF9BW125, 4/5CR
- -123 -12.75 868.1MHz, SF9BW125, 4/5CR
2026-05-05 06:33:02 16.25°C 71.4375% 3.39V v255 No position 3769 ttn.v3 - -109 -3 867.9MHz, SF9BW125, 4/5CR
- -122 -10 867.9MHz, SF9BW125, 4/5CR
2026-05-05 06:16:50 16.4375°C 70.5% 3.39V v255 No position 3768 ttn.v3 - -114 -7.75 868.5MHz, SF9BW125, 4/5CR
2026-05-05 06:00:38 16.6875°C 70.125% 3.39V v255 No position 3767 ttn.v3 - -97 -1 867.7MHz, SF9BW125, 4/5CR
- -121 -8.25 867.7MHz, SF9BW125, 4/5CR
- -113 -13 867.7MHz, SF9BW125, 4/5CR
2026-05-05 05:44:26 16.6875°C 70.625% 3.39V v255 No position 3766 ttn.v3 - -114 -10.5 868.3MHz, SF9BW125, 4/5CR
2026-05-05 05:28:14 16.6875°C 70.6875% 3.39V v255 No position 3765 ttn.v3 - -113 -12.5 867.5MHz, SF9BW125, 4/5CR
2026-05-05 05:12:02 16.8125°C 70.5625% 3.39V v255 No position 3764 ttn.v3 - -105 -4.5 868.1MHz, SF9BW125, 4/5CR
- -114 -11 868.1MHz, SF9BW125, 4/5CR
2026-05-05 04:55:50 16.9375°C 70.4375% 3.39V v255 No position 3763 ttn.v3 - -107 -1.25 867.3MHz, SF9BW125, 4/5CR
- -115 -9.75 867.3MHz, SF9BW125, 4/5CR
2026-05-05 04:39:37 17°C 70.3125% 3.39V v255 No position 3762 ttn.v3 - -92 -13.5 868.5MHz, SF9BW125, 4/5CR
2026-05-05 04:23:25 17.25°C 69.75% 3.39V v255 No position 3761 ttn.v3 - -104 -4 867.1MHz, SF9BW125, 4/5CR
- -115 -9 867.1MHz, SF9BW125, 4/5CR
2026-05-05 03:51:01 17.5625°C 70% 3.39V v255 No position 3759 ttn.v3 - -110 1.5 867.9MHz, SF9BW125, 4/5CR
2026-05-05 03:18:36 17.75°C 69.6875% 3.39V v255 No position 3757 ttn.v3 - -107 -3.25 867.7MHz, SF9BW125, 4/5CR
- -114 -10.25 867.7MHz, SF9BW125, 4/5CR
2026-05-05 02:13:46 18.5°C 69.5% 3.39V v255 No position 3753 ttn.v3 - -101 -3 867.3MHz, SF9BW125, 4/5CR
- -115 -13.75 867.3MHz, SF9BW125, 4/5CR
2026-05-05 01:57:33 18.625°C 68.875% 3.39V v255 No position 3752 ttn.v3 - -113 -11.75 868.1MHz, SF9BW125, 4/5CR
2026-05-05 01:41:20 18.8125°C 68.875% 3.39V v255 No position 3751 ttn.v3 - -105 2 867.1MHz, SF9BW125, 4/5CR
- -114 -11.5 867.1MHz, SF9BW125, 4/5CR
2026-05-05 01:25:08 19.0625°C 69.5% 3.39V v255 No position 3750 ttn.v3 - -114 -9.75 868.5MHz, SF9BW125, 4/5CR
2026-05-05 01:08:55 19.125°C 69.75% 3.39V v255 No position 3749 ttn.v3 - -111 -3.75 867.9MHz, SF9BW125, 4/5CR
2026-05-05 00:36:29 19.5625°C 69.8125% 3.39V v255 No position 3747 ttn.v3 - -99 -8.25 867.7MHz, SF9BW125, 4/5CR
- -113 -10.75 867.7MHz, SF9BW125, 4/5CR
2026-05-05 00:20:16 19.75°C 69.8125% 3.39V v255 No position 3746 ttn.v3 - -109 -10.5 868.1MHz, SF9BW125, 4/5CR
- -115 -11.75 868.1MHz, SF9BW125, 4/5CR
2026-05-05 00:04:03 19.8125°C 70.0625% 3.38V v255 No position 3745 ttn.v3 - -113 -12.5 867.5MHz, SF9BW125, 4/5CR
2026-05-04 23:50:02 20.0625°C 70.1875% 3.38V v255 No position 3744 ttn.v3 - -114 -8 868.5MHz, SF12BW125, 4/5CR
2026-05-04 23:31:47 20.0625°C 70.0625% 3.39V v255 No position 3743 ttn.v3 - -107 -4 867.3MHz, SF9BW125, 4/5CR
- -114 -10 867.3MHz, SF9BW125, 4/5CR
2026-05-04 23:15:34 20.125°C 71.0625% 3.38V v255 No position 3742 ttn.v3 - -113 -13.5 868.3MHz, SF9BW125, 4/5CR
2026-05-04 22:59:21 20.3125°C 73.0625% 3.39V v255 No position 3741 ttn.v3 - -103 -3 867.1MHz, SF9BW125, 4/5CR
- -114 -11 867.1MHz, SF9BW125, 4/5CR
2026-05-04 22:43:08 20.4375°C 75.125% 3.39V v255 No position 3740 ttn.v3 - -112 -10.75 868.1MHz, SF9BW125, 4/5CR
2026-05-04 22:26:55 20.5°C 70.5% 3.39V v255 No position 3739 ttn.v3 - -108 -2.5 867.9MHz, SF9BW125, 4/5CR
- -115 -14.25 867.9MHz, SF9BW125, 4/5CR
2026-05-04 22:10:42 20.8125°C 72.3125% 3.39V v255 No position 3738 ttn.v3 - -115 -11 868.5MHz, SF9BW125, 4/5CR
2026-05-04 21:54:28 21.0625°C 68.5% 3.38V v255 No position 3737 ttn.v3 - -104 0.25 867.7MHz, SF9BW125, 4/5CR
- -112 -9.25 867.7MHz, SF9BW125, 4/5CR
2026-05-04 21:38:15 21.375°C 68.625% 3.39V v255 No position 3736 ttn.v3 - -112 -6.75 868.3MHz, SF9BW125, 4/5CR
2026-05-04 21:22:01 21.625°C 69.1875% 3.39V v255 No position 3735 ttn.v3 - -112 -8.25 867.5MHz, SF9BW125, 4/5CR
2026-05-04 21:05:48 21.6875°C 69.125% 3.39V v255 No position 3734 ttn.v3 - -102 -8.75 868.1MHz, SF9BW125, 4/5CR
2026-05-04 20:49:34 21.8125°C 69.5625% 3.39V v255 No position 3733 ttn.v3 - -113 -8.75 867.3MHz, SF9BW125, 4/5CR
2026-05-04 20:33:20 22°C 69.125% 3.39V v255 No position 3732 ttn.v3 - -114 -9.75 868.5MHz, SF9BW125, 4/5CR
2026-05-04 20:17:07 22.0625°C 69.4375% 3.39V v255 No position 3731 ttn.v3 - -115 -7.5 867.1MHz, SF9BW125, 4/5CR
2026-05-04 19:44:39 22.4375°C 72.4375% 3.38V v255 No position 3729 ttn.v3 - -110 -4 867.9MHz, SF9BW125, 4/5CR
2026-05-04 19:28:25 22.5°C 72.875% 3.39V v255 No position 3728 ttn.v3 - -103 -10 868.1MHz, SF9BW125, 4/5CR
2026-05-04 19:12:12 22.5625°C 75.4375% 3.38V v255 No position 3727 ttn.v3 - -102 1.75 867.7MHz, SF9BW125, 4/5CR
2026-05-04 18:55:58 22.4375°C 72.5% 3.38V v255 No position 3726 ttn.v3 - -115 -6.5 868.5MHz, SF9BW125, 4/5CR
2026-05-04 18:39:44 22.375°C 71.25% 3.38V v255 No position 3725 ttn.v3 - -112 -7.25 867.5MHz, SF9BW125, 4/5CR
2026-05-04 17:51:02 22.5°C 67.9375% 3.38V v255 No position 3722 ttn.v3 - -115 -8.5 868.1MHz, SF9BW125, 4/5CR

Message count: 200
Node count: 1

Messages per node

Number of messages in list aboveNodes
200

Statistics per gateway

GatewayNumber of messagesNumber of nodesNodes
1591
1291
161

Filter by dataset